Terminal Aerodrome Forecast
Issued by NWS

Home | Current Version | Previous Version | Graphics & Text | Print | Product List | Glossary On
Versions: 1 2 3 4 5 6 7 8 9 10 11 12 13 14 15 16 17
000
FTUS43 KGRB 230842 AAB
TAFCWA
TAF AMD
KCWA 230842Z 2309/2406 00000KT 1/4SM FG OVC002
      TEMPO 2309/2313 1SM BR SCT002
     FM231300 25002KT P6SM SCT250
     FM231600 21004KT P6SM SCT030
      TEMPO 2316/2319 BKN030
     FM232200 20005KT P6SM SCT250
      AMD LTD TO CLD VIS AND WIND TIL 231100=

USA.gov is the U.S. government's official web portal to all federal, state and local government web resources and services.